createdAt,value
2019-05-19T00:00:46.239Z,23.43
2019-05-19T00:01:46.185Z,23.32
2019-05-19T00:03:39.399Z,23.42
2019-05-19T00:04:39.359Z,23.43
2019-05-19T00:06:32.174Z,23.40
2019-05-19T00:07:32.099Z,23.35
2019-05-19T00:09:24.909Z,23.32
2019-05-19T00:10:24.850Z,23.32
2019-05-19T00:12:17.659Z,23.40
2019-05-19T00:13:17.592Z,23.34
2019-05-19T00:15:10.396Z,23.39
2019-05-19T00:16:10.338Z,23.32
2019-05-19T00:18:03.154Z,23.38
2019-05-19T00:19:03.096Z,23.34
2019-05-19T00:20:55.904Z,23.29
2019-05-19T00:21:55.857Z,23.32
2019-05-19T00:23:48.635Z,23.31
2019-05-19T00:24:48.782Z,23.32
2019-05-19T00:26:41.870Z,23.40
2019-05-19T00:27:41.815Z,23.32
2019-05-19T00:29:34.598Z,23.32
2019-05-19T00:30:34.558Z,23.27
2019-05-19T00:32:27.365Z,23.32
2019-05-19T00:33:27.312Z,23.29
2019-05-19T00:35:20.302Z,23.35
2019-05-19T00:36:20.240Z,23.20
2019-05-19T00:38:13.050Z,23.27
2019-05-19T00:39:12.988Z,23.31
2019-05-19T00:41:05.790Z,23.26
2019-05-19T00:42:05.739Z,23.27
2019-05-19T00:43:58.560Z,23.34
2019-05-19T00:44:58.491Z,23.32
2019-05-19T00:46:51.334Z,23.27
2019-05-19T00:47:51.247Z,23.32
2019-05-19T00:49:44.044Z,23.31
2019-05-19T00:50:43.999Z,23.26
2019-05-19T00:52:36.811Z,23.31
2019-05-19T00:53:36.748Z,23.27
2019-05-19T00:55:29.544Z,23.22
2019-05-19T00:56:29.502Z,23.23
2019-05-19T00:58:22.325Z,23.23
2019-05-19T00:59:22.262Z,23.31
2019-05-19T01:01:15.055Z,23.27
2019-05-19T01:02:15.016Z,23.20
2019-05-19T01:04:07.828Z,23.24
2019-05-19T01:05:07.758Z,23.24
2019-05-19T01:07:00.578Z,23.29
2019-05-19T01:08:00.529Z,23.23
2019-05-19T01:09:53.314Z,23.23
2019-05-19T01:10:53.262Z,23.22
2019-05-19T01:12:46.074Z,23.23
2019-05-19T01:13:46.040Z,23.24
2019-05-19T01:15:38.801Z,23.29
2019-05-19T01:16:38.748Z,23.31
2019-05-19T01:18:31.571Z,23.27
2019-05-19T01:19:31.505Z,23.27
2019-05-19T01:21:24.303Z,23.26
2019-05-19T01:22:24.260Z,23.19
2019-05-19T01:24:17.079Z,23.23
2019-05-19T01:25:17.011Z,23.15
2019-05-19T01:27:09.863Z,23.15
2019-05-19T01:28:09.767Z,23.15
2019-05-19T01:30:02.568Z,23.22
2019-05-19T01:31:02.519Z,23.19
2019-05-19T01:32:55.332Z,23.24
2019-05-19T01:33:55.267Z,23.14
2019-05-19T01:35:48.066Z,23.15
2019-05-19T01:36:48.028Z,23.11
2019-05-19T01:38:40.846Z,23.15
2019-05-19T01:39:40.768Z,23.12
2019-05-19T01:41:33.988Z,23.14
2019-05-19T01:42:33.936Z,23.20
2019-05-19T01:44:26.755Z,23.11
2019-05-19T01:45:26.712Z,23.11
2019-05-19T01:47:19.480Z,23.11
2019-05-19T01:48:19.429Z,23.17
2019-05-19T01:50:17.946Z,23.08
2019-05-19T01:51:12.194Z,23.20
2019-05-19T01:53:05.089Z,23.07
2019-05-19T01:54:05.011Z,23.22
2019-05-19T01:55:57.810Z,23.04
2019-05-19T01:56:57.773Z,23.17
2019-05-19T01:58:50.590Z,23.11
2019-05-19T01:59:50.521Z,23.11
2019-05-19T02:01:43.316Z,23.08
2019-05-19T02:02:43.274Z,23.07
2019-05-19T02:04:36.573Z,23.11
2019-05-19T02:05:36.504Z,23.07
2019-05-19T02:07:29.845Z,23.09
2019-05-19T02:08:29.672Z,23.09
2019-05-19T02:10:22.512Z,23.09
2019-05-19T02:11:22.444Z,23.08
2019-05-19T02:13:15.260Z,23.08
2019-05-19T02:14:15.183Z,23.09
2019-05-19T02:16:08.183Z,23.04
2019-05-19T02:17:08.138Z,23.11
2019-05-19T02:19:00.965Z,23.11
2019-05-19T02:20:00.902Z,22.97
2019-05-19T02:21:53.688Z,22.99
2019-05-19T02:22:53.636Z,22.96
2019-05-19T02:24:46.463Z,23.01
2019-05-19T02:25:46.394Z,22.99
2019-05-19T02:27:39.186Z,22.99
2019-05-19T02:28:39.139Z,22.97
2019-05-19T02:30:32.501Z,22.92
2019-05-19T02:31:32.311Z,22.96
2019-05-19T02:33:25.195Z,22.94
2019-05-19T02:34:25.068Z,22.93
2019-05-19T02:36:17.872Z,22.93
2019-05-19T02:37:17.821Z,22.93
2019-05-19T02:39:10.642Z,22.92
2019-05-19T02:40:10.641Z,22.97
2019-05-19T02:42:03.374Z,22.97
2019-05-19T02:43:03.332Z,22.93
2019-05-19T02:44:56.145Z,22.94
2019-05-19T02:45:56.080Z,22.96
2019-05-19T02:47:48.903Z,22.93
2019-05-19T02:48:48.839Z,22.92
2019-05-19T02:50:51.468Z,22.99
2019-05-19T02:51:41.581Z,22.96
2019-05-19T02:53:34.380Z,22.97
2019-05-19T02:54:34.328Z,22.94
2019-05-19T02:56:27.592Z,22.90
2019-05-19T02:57:27.520Z,22.97
2019-05-19T02:59:20.805Z,22.96
2019-05-19T03:00:20.708Z,22.92
2019-05-19T03:02:13.764Z,22.93
2019-05-19T03:03:13.659Z,22.94
2019-05-19T03:05:06.475Z,22.99
2019-05-19T03:06:06.415Z,22.89
2019-05-19T03:07:59.239Z,22.92
2019-05-19T03:08:59.223Z,22.89
2019-05-19T03:10:52.001Z,22.89
2019-05-19T03:11:51.951Z,22.97
2019-05-19T03:13:44.735Z,22.89
2019-05-19T03:14:44.686Z,22.83
2019-05-19T03:16:37.504Z,22.96
2019-05-19T03:17:37.424Z,22.97
2019-05-19T03:19:30.683Z,22.86
2019-05-19T03:20:30.613Z,22.78
2019-05-19T03:22:23.893Z,22.86
2019-05-19T03:23:23.845Z,22.93
2019-05-19T03:25:16.654Z,22.96
2019-05-19T03:26:16.580Z,22.89
2019-05-19T03:28:09.384Z,22.90
2019-05-19T03:29:09.332Z,22.97
2019-05-19T03:31:02.151Z,22.92
2019-05-19T03:32:02.078Z,22.83
2019-05-19T03:33:55.076Z,22.92
2019-05-19T03:34:55.024Z,22.83
2019-05-19T03:36:47.841Z,22.83
2019-05-19T03:37:47.778Z,22.89
2019-05-19T03:39:40.837Z,22.86
2019-05-19T03:40:40.733Z,22.93
2019-05-19T03:42:33.521Z,22.96
2019-05-19T03:43:33.476Z,22.80
2019-05-19T03:45:26.303Z,22.93
2019-05-19T03:46:26.246Z,22.82
2019-05-19T03:48:19.468Z,22.83
2019-05-19T03:49:19.413Z,22.93
2019-05-19T03:51:29.182Z,22.82
2019-05-19T03:52:12.159Z,22.89
2019-05-19T03:54:04.954Z,22.90
2019-05-19T03:55:04.900Z,22.87
2019-05-19T03:56:57.864Z,22.86
2019-05-19T03:57:57.649Z,22.87
2019-05-19T03:59:50.457Z,22.80
2019-05-19T04:00:50.399Z,22.86
2019-05-19T04:02:43.404Z,22.86
2019-05-19T04:03:43.480Z,22.94
2019-05-19T04:05:36.153Z,22.89
2019-05-19T04:06:36.112Z,22.83
2019-05-19T04:08:28.878Z,22.92
2019-05-19T04:09:28.835Z,22.93
2019-05-19T04:11:22.087Z,22.93
2019-05-19T04:12:22.016Z,22.84
2019-05-19T04:14:14.798Z,22.84
2019-05-19T04:15:14.772Z,22.87
2019-05-19T04:17:07.569Z,22.89
2019-05-19T04:18:07.494Z,22.84
2019-05-19T04:20:00.300Z,22.90
2019-05-19T04:21:00.273Z,22.87
2019-05-19T04:22:53.064Z,22.83
2019-05-19T04:23:53.002Z,22.83
2019-05-19T04:25:45.808Z,22.87
2019-05-19T04:26:45.742Z,22.84
2019-05-19T04:28:39.567Z,22.87
2019-05-19T04:29:39.696Z,22.80
2019-05-19T04:31:32.313Z,22.87
2019-05-19T04:32:32.227Z,22.87
2019-05-19T04:34:25.286Z,22.89
2019-05-19T04:35:24.994Z,22.84
2019-05-19T04:37:18.263Z,22.86
2019-05-19T04:38:18.189Z,22.93
2019-05-19T04:40:11.429Z,22.89
2019-05-19T04:41:11.378Z,22.89
2019-05-19T04:43:04.209Z,22.94
2019-05-19T04:44:04.126Z,22.87
2019-05-19T04:45:56.941Z,22.89
2019-05-19T04:46:56.877Z,22.87
2019-05-19T04:48:49.683Z,22.92
2019-05-19T04:49:49.633Z,22.90
2019-05-19T04:51:42.455Z,22.94
2019-05-19T04:52:42.383Z,22.93
2019-05-19T04:54:35.181Z,22.94
2019-05-19T04:55:35.132Z,22.94
2019-05-19T04:57:27.949Z,23.01
2019-05-19T04:58:27.880Z,22.93
2019-05-19T05:00:21.126Z,22.94
2019-05-19T05:01:21.113Z,22.94
2019-05-19T07:37:00.073Z,22.78
2019-05-19T07:37:59.981Z,22.75
2019-05-19T07:39:52.794Z,22.84
2019-05-19T07:40:52.713Z,22.77
2019-05-19T07:42:45.497Z,22.82
2019-05-19T07:43:45.445Z,22.82
2019-05-19T07:45:38.252Z,22.84
2019-05-19T07:46:38.181Z,22.83
2019-05-19T07:48:31.122Z,22.84
2019-05-19T07:49:30.926Z,22.83
2019-05-19T07:51:23.748Z,22.84
2019-05-19T07:52:23.707Z,22.87
2019-05-19T07:54:16.469Z,22.86
2019-05-19T07:55:16.425Z,22.87
2019-05-19T07:57:09.232Z,22.93
2019-05-19T07:58:09.194Z,22.84
2019-05-19T08:00:02.032Z,22.87
2019-05-19T08:01:01.904Z,22.94
2019-05-19T08:02:55.141Z,22.90
2019-05-19T08:03:55.086Z,22.96
2019-05-19T08:04:55.044Z,22.92
2019-05-19T08:05:56.974Z,22.92
2019-05-19T08:06:55.098Z,22.94
2019-05-19T08:07:54.907Z,22.94
2019-05-19T08:08:54.858Z,23.01
2019-05-19T08:09:54.811Z,23.02
2019-05-19T08:10:54.763Z,23.08
2019-05-19T08:11:54.730Z,23.14
2019-05-19T08:12:54.677Z,23.08
2019-05-19T08:13:54.628Z,23.14
2019-05-19T08:14:54.586Z,23.05
2019-05-19T08:15:54.552Z,23.11
2019-05-19T08:16:54.491Z,23.19
2019-05-19T08:17:54.449Z,23.15
2019-05-19T08:18:54.403Z,23.19
2019-05-19T08:19:54.358Z,23.19
2019-05-19T08:20:54.339Z,23.12
2019-05-19T08:21:54.268Z,23.17
2019-05-19T08:22:54.223Z,23.15
2019-05-19T08:24:00.478Z,23.23
2019-05-19T08:24:54.141Z,23.24
2019-05-19T08:25:54.088Z,23.26
2019-05-19T08:26:54.046Z,23.24
2019-05-19T08:27:54.000Z,23.29
2019-05-19T08:28:53.965Z,23.31
2019-05-19T08:29:53.934Z,23.31
2019-05-19T08:30:53.882Z,23.35
2019-05-19T08:31:53.821Z,23.35
2019-05-19T08:32:53.774Z,23.32
2019-05-19T08:33:53.809Z,23.39
2019-05-19T08:34:53.685Z,23.49
2019-05-19T08:35:53.643Z,23.39
2019-05-19T08:36:53.598Z,23.50
2019-05-19T08:37:53.554Z,23.42
2019-05-19T08:38:53.574Z,23.45
2019-05-19T08:39:53.466Z,23.49
2019-05-19T08:40:53.445Z,23.49
2019-05-19T08:41:53.378Z,23.50
2019-05-19T08:42:53.333Z,23.52
2019-05-19T08:43:53.657Z,23.47
2019-05-19T08:44:53.244Z,23.52
2019-05-19T08:45:53.198Z,23.49
2019-05-19T08:46:53.153Z,23.58
2019-05-19T08:47:53.109Z,23.61
2019-05-19T08:48:53.066Z,23.52
2019-05-19T08:49:53.021Z,23.60
2019-05-19T08:50:52.975Z,23.57
2019-05-19T08:51:52.933Z,23.57
2019-05-19T08:52:52.896Z,23.55
2019-05-19T08:53:52.841Z,23.60
2019-05-19T08:54:52.798Z,23.57
2019-05-19T08:55:52.755Z,23.57
2019-05-19T08:56:52.707Z,23.60
2019-05-19T08:57:52.663Z,23.62
2019-05-19T08:58:52.620Z,23.62
2019-05-19T08:59:52.576Z,23.64
2019-05-19T09:00:52.538Z,23.61
2019-05-19T09:01:52.488Z,23.57
2019-05-19T09:02:52.455Z,23.58
2019-05-19T09:03:52.399Z,23.55
2019-05-19T09:04:52.373Z,23.57
2019-05-19T09:05:52.314Z,23.57
2019-05-19T09:06:52.266Z,23.58
2019-05-19T09:07:52.221Z,23.52
2019-05-19T09:08:52.240Z,23.47
2019-05-19T09:09:52.137Z,23.46
2019-05-19T09:10:52.094Z,23.49
2019-05-19T09:11:52.047Z,23.47
2019-05-19T09:12:52.001Z,23.42
2019-05-19T09:13:52.054Z,23.42
2019-05-19T09:14:51.910Z,23.34
2019-05-19T09:15:51.870Z,23.32
2019-05-19T09:16:51.826Z,23.22
2019-05-19T09:17:54.221Z,23.19
2019-05-19T09:18:51.744Z,23.08
2019-05-19T09:19:51.698Z,22.93
2019-05-19T09:20:51.645Z,22.92
2019-05-19T09:21:51.610Z,22.87
2019-05-19T09:22:51.556Z,22.90
2019-05-19T09:23:51.522Z,22.92
2019-05-19T09:24:51.468Z,22.97
2019-05-19T09:25:51.435Z,23.04
2019-05-19T09:26:51.415Z,23.12
2019-05-19T09:27:51.344Z,23.11
2019-05-19T09:28:51.288Z,23.15
2019-05-19T09:29:51.247Z,23.15
2019-05-19T09:30:51.252Z,23.24
2019-05-19T09:31:51.196Z,23.24
2019-05-19T09:32:51.113Z,23.34
2019-05-19T09:33:51.070Z,23.29
2019-05-19T09:34:51.024Z,23.39
2019-05-19T09:35:50.983Z,23.40
2019-05-19T09:36:50.938Z,23.43
2019-05-19T09:37:50.891Z,23.50
2019-05-19T09:38:50.846Z,23.50
2019-05-19T09:39:50.811Z,23.58
2019-05-19T09:40:50.757Z,23.58
2019-05-19T09:41:50.719Z,23.53
2019-05-19T09:42:50.665Z,23.53
2019-05-19T09:43:50.628Z,23.53
2019-05-19T09:44:50.653Z,23.58
2019-05-19T09:45:50.555Z,23.61
2019-05-19T09:46:50.489Z,23.67
2019-05-19T09:47:50.452Z,23.68
2019-05-19T09:48:50.402Z,23.75
2019-05-19T09:49:50.371Z,23.67
2019-05-19T09:50:50.364Z,23.67
2019-05-19T09:51:50.322Z,23.68
2019-05-19T09:52:50.222Z,23.75
2019-05-19T09:53:50.190Z,23.83
2019-05-19T09:54:50.135Z,23.71
2019-05-19T09:55:50.101Z,23.70
2019-05-19T09:56:50.049Z,23.70
2019-05-19T09:57:50.007Z,23.71
2019-05-19T09:58:49.961Z,23.82
2019-05-19T09:59:49.919Z,23.77
2019-05-19T10:00:49.899Z,23.79
2019-05-19T10:01:49.829Z,23.79
2019-05-19T10:02:49.782Z,23.79
2019-05-19T10:03:49.737Z,23.79
2019-05-19T10:04:49.711Z,23.80
2019-05-19T10:05:49.654Z,23.80
2019-05-19T10:06:49.609Z,23.83
2019-05-19T10:07:49.566Z,23.80
2019-05-19T10:08:49.522Z,23.90
2019-05-19T10:09:49.477Z,23.80
2019-05-19T10:10:49.448Z,23.80
2019-05-19T10:11:49.386Z,23.82
2019-05-19T10:12:49.346Z,23.82
2019-05-19T10:13:49.299Z,23.85
2019-05-19T10:14:49.259Z,23.83
2019-05-19T10:15:49.212Z,23.86
2019-05-19T10:16:49.582Z,23.83
2019-05-19T10:17:49.135Z,23.83
2019-05-19T10:18:49.079Z,24.01
2019-05-19T10:19:49.043Z,23.89
2019-05-19T10:20:50.474Z,23.90
2019-05-19T10:21:48.952Z,23.97
2019-05-19T10:22:48.901Z,23.94
2019-05-19T10:23:48.860Z,23.94
2019-05-19T10:24:59.641Z,23.98
2019-05-19T10:25:48.779Z,23.95
2019-05-19T10:26:48.725Z,23.95
2019-05-19T10:27:48.693Z,23.98
2019-05-19T10:28:48.637Z,23.95
2019-05-19T10:29:48.592Z,23.95
2019-05-19T10:30:48.547Z,23.98
2019-05-19T10:31:48.503Z,23.92
2019-05-19T10:32:48.458Z,23.92
2019-05-19T10:33:48.462Z,23.98
2019-05-19T10:34:48.372Z,23.98
2019-05-19T10:35:48.330Z,24.01
2019-05-19T10:36:48.286Z,24.01
2019-05-19T10:37:48.245Z,23.98
2019-05-19T10:38:48.207Z,24.00
2019-05-19T10:39:48.158Z,24.04
2019-05-19T10:40:48.130Z,24.04
2019-05-19T10:41:48.066Z,24.01
2019-05-19T10:42:48.048Z,24.02
2019-05-19T10:43:48.047Z,24.05
2019-05-19T10:44:47.933Z,24.05
2019-05-19T10:45:47.890Z,24.08
2019-05-19T10:46:47.843Z,24.07
2019-05-19T10:47:47.815Z,24.08
2019-05-19T10:48:47.754Z,24.05
2019-05-19T10:49:47.715Z,24.07
2019-05-19T10:50:47.667Z,24.05
2019-05-19T10:51:47.627Z,24.05
2019-05-19T10:52:47.578Z,24.05
2019-05-19T10:53:47.535Z,24.04
2019-05-19T10:54:47.493Z,24.10
2019-05-19T10:55:47.450Z,24.00
2019-05-19T10:56:47.404Z,24.16
2019-05-19T10:57:47.362Z,24.05
2019-05-19T10:58:47.316Z,24.10
2019-05-19T10:59:47.274Z,24.12
2019-05-19T11:00:47.229Z,24.13
2019-05-19T11:01:47.225Z,24.10
2019-05-19T11:02:47.140Z,24.12
2019-05-19T11:03:47.094Z,24.08
2019-05-19T11:04:47.051Z,24.12
2019-05-19T11:05:47.017Z,24.10
2019-05-19T11:06:46.961Z,24.12
2019-05-19T11:07:46.916Z,24.12
2019-05-19T11:08:46.874Z,24.12
2019-05-19T11:09:46.827Z,24.20
2019-05-19T11:10:46.801Z,24.23
2019-05-19T11:11:46.739Z,24.08
2019-05-19T11:12:47.078Z,24.13
2019-05-19T11:13:46.656Z,24.16
2019-05-19T11:14:46.644Z,24.17
2019-05-19T11:15:46.566Z,24.13
2019-05-19T11:16:46.521Z,24.16
2019-05-19T11:17:46.496Z,24.20
2019-05-19T11:18:46.437Z,24.13
2019-05-19T11:19:46.391Z,24.10
2019-05-19T11:20:46.362Z,24.19
2019-05-19T11:21:46.304Z,24.19
2019-05-19T11:22:46.258Z,24.20
2019-05-19T11:23:46.213Z,24.20
2019-05-19T11:24:46.167Z,24.19
2019-05-19T11:25:51.597Z,24.12
2019-05-19T11:26:46.086Z,24.19
2019-05-19T11:27:46.038Z,24.19
2019-05-19T11:28:45.989Z,24.22
2019-05-19T11:29:45.949Z,24.20
2019-05-19T11:30:45.908Z,24.17
2019-05-19T11:31:45.914Z,24.23
2019-05-19T11:32:45.844Z,24.16
2019-05-19T11:33:45.777Z,24.19
2019-05-19T11:34:45.730Z,24.20
2019-05-19T11:35:45.688Z,24.17
2019-05-19T11:36:45.649Z,24.20
2019-05-19T11:37:45.596Z,24.20
2019-05-19T11:38:45.557Z,24.17
2019-05-19T11:39:45.517Z,24.17
2019-05-19T11:40:45.463Z,24.26
2019-05-19T11:41:45.450Z,24.20
2019-05-19T11:42:46.949Z,24.17
2019-05-19T11:43:45.333Z,24.26
2019-05-19T11:44:45.307Z,24.17
2019-05-19T11:45:45.265Z,24.22
2019-05-19T11:46:45.201Z,24.19
2019-05-19T11:47:45.197Z,24.19
2019-05-19T11:48:45.110Z,24.14
2019-05-19T11:49:45.069Z,24.19
2019-05-19T11:50:45.019Z,24.16
2019-05-19T11:51:44.981Z,24.20
2019-05-19T11:52:44.938Z,24.19
2019-05-19T11:53:44.892Z,24.16
2019-05-19T11:54:44.847Z,24.19
2019-05-19T11:55:44.808Z,24.14
2019-05-19T11:56:44.783Z,24.16
2019-05-19T11:57:44.721Z,24.14
2019-05-19T11:58:44.683Z,24.24
2019-05-19T11:59:44.631Z,24.23
2019-05-19T12:00:44.582Z,24.20
2019-05-19T12:01:44.541Z,24.22
2019-05-19T12:02:44.511Z,24.29
2019-05-19T12:03:44.454Z,24.29
2019-05-19T12:04:44.407Z,24.29
2019-05-19T12:05:44.361Z,24.34
2019-05-19T12:06:44.337Z,24.34
2019-05-19T12:07:44.277Z,24.29
2019-05-19T12:08:44.229Z,24.35
2019-05-19T12:09:44.188Z,24.29
2019-05-19T12:10:44.145Z,24.31
2019-05-19T12:11:44.105Z,24.31
2019-05-19T12:12:44.056Z,24.31
2019-05-19T12:13:44.016Z,24.29
2019-05-19T12:14:43.990Z,24.31
2019-05-19T12:15:43.948Z,24.31
2019-05-19T12:16:43.882Z,24.27
2019-05-19T12:17:43.836Z,24.31
2019-05-19T12:18:43.810Z,24.38
2019-05-19T12:19:43.751Z,24.29
2019-05-19T12:20:43.700Z,24.27
2019-05-19T12:21:43.661Z,24.29
2019-05-19T12:22:43.618Z,24.32
2019-05-19T12:23:43.574Z,24.27
2019-05-19T12:24:43.534Z,24.26
2019-05-19T12:25:43.485Z,24.29
2019-05-19T12:26:43.441Z,24.31
2019-05-19T12:27:43.398Z,24.27
2019-05-19T12:28:43.351Z,24.27
2019-05-19T12:29:43.313Z,24.34
2019-05-19T12:30:43.271Z,24.32
2019-05-19T12:31:43.222Z,24.27
2019-05-19T12:32:43.176Z,24.32
2019-05-19T12:33:51.475Z,24.32
2019-05-19T12:34:43.084Z,24.31
2019-05-19T12:35:43.047Z,24.27
2019-05-19T12:36:43.017Z,24.34
2019-05-19T12:37:42.957Z,24.35
2019-05-19T12:38:42.914Z,24.31
2019-05-19T12:39:42.871Z,24.29
2019-05-19T12:40:42.825Z,24.32
2019-05-19T12:41:42.784Z,24.31
2019-05-19T12:42:42.737Z,24.29
2019-05-19T12:43:42.694Z,24.27
2019-05-19T12:44:42.648Z,24.31
2019-05-19T12:45:42.618Z,24.32
2019-05-19T12:46:42.557Z,24.31
2019-05-19T12:47:42.530Z,24.27
2019-05-19T12:48:42.477Z,24.29
2019-05-19T12:49:42.439Z,24.31
2019-05-19T12:50:42.385Z,24.26
2019-05-19T12:51:42.344Z,24.32
2019-05-19T12:52:42.309Z,24.26
2019-05-19T12:53:42.261Z,24.27
2019-05-19T12:54:42.387Z,24.32
2019-05-19T12:55:42.172Z,24.29
2019-05-19T12:56:42.122Z,24.26
2019-05-19T12:57:42.076Z,24.38
2019-05-19T12:58:42.041Z,24.38
2019-05-19T12:59:41.990Z,24.32
2019-05-19T13:00:42.092Z,24.34
2019-05-19T13:01:41.900Z,24.37
2019-05-19T13:02:41.859Z,24.32
2019-05-19T13:03:41.811Z,24.34
2019-05-19T13:04:41.770Z,24.26
2019-05-19T13:05:41.726Z,24.29
2019-05-19T13:06:41.688Z,24.29
2019-05-19T13:07:41.689Z,24.29
2019-05-19T13:08:41.589Z,24.34
2019-05-19T13:09:41.552Z,24.32
2019-05-19T13:10:41.505Z,24.24
2019-05-19T13:11:41.463Z,24.34
2019-05-19T13:12:41.414Z,24.32
2019-05-19T13:13:41.392Z,24.37
2019-05-19T13:14:41.329Z,24.29
2019-05-19T13:15:41.285Z,24.31
2019-05-19T13:16:41.243Z,24.29
2019-05-19T13:17:41.205Z,24.35
2019-05-19T13:18:41.158Z,24.35
2019-05-19T13:19:41.130Z,24.32
2019-05-19T13:20:41.067Z,24.35
2019-05-19T13:21:41.018Z,24.29
2019-05-19T13:22:40.997Z,24.29
2019-05-19T13:23:40.933Z,24.34
2019-05-19T13:24:40.887Z,24.31
2019-05-19T13:25:40.844Z,24.38
2019-05-19T13:26:55.524Z,24.34
2019-05-19T13:27:40.760Z,24.29
2019-05-19T13:28:40.718Z,24.35
2019-05-19T13:29:40.690Z,24.34
2019-05-19T13:30:43.465Z,24.34
2019-05-19T13:31:40.583Z,24.34
2019-05-19T13:32:40.536Z,24.35
2019-05-19T13:33:40.518Z,24.35
2019-05-19T13:34:40.454Z,24.31
2019-05-19T13:35:40.419Z,24.37
2019-05-19T13:36:40.571Z,24.32
2019-05-19T13:37:40.323Z,24.29
2019-05-19T13:38:40.274Z,24.26
2019-05-19T13:39:40.232Z,24.38
2019-05-19T13:40:40.232Z,24.35
2019-05-19T13:41:40.143Z,24.24
2019-05-19T13:42:40.096Z,24.29
2019-05-19T13:43:40.055Z,24.26
2019-05-19T13:44:40.011Z,24.29
2019-05-19T13:45:39.969Z,24.34
2019-05-19T13:46:39.919Z,24.32
2019-05-19T13:47:39.878Z,24.27
2019-05-19T13:48:39.834Z,24.26
2019-05-19T13:49:39.790Z,24.31
2019-05-19T13:50:39.744Z,24.35
2019-05-19T13:51:39.705Z,24.34
2019-05-19T13:52:39.660Z,24.35
2019-05-19T13:53:39.670Z,24.32
2019-05-19T13:54:39.570Z,24.31
2019-05-19T13:55:39.531Z,24.27
2019-05-19T13:56:39.477Z,24.29
2019-05-19T13:57:39.444Z,24.29
2019-05-19T13:58:39.411Z,24.29
2019-05-19T13:59:39.359Z,24.29
2019-05-19T14:00:39.333Z,24.32
2019-05-19T14:01:39.265Z,24.37
2019-05-19T14:02:39.221Z,24.29
2019-05-19T14:03:39.226Z,24.35
2019-05-19T14:04:39.134Z,24.35
2019-05-19T14:05:39.087Z,24.35
2019-05-19T14:06:39.181Z,24.29
2019-05-19T14:07:39.004Z,24.29
2019-05-19T14:08:38.957Z,24.32
2019-05-19T14:09:38.912Z,24.24
2019-05-19T14:10:38.867Z,24.31
2019-05-19T14:11:38.824Z,24.35
2019-05-19T14:12:38.789Z,24.35
2019-05-19T14:13:38.737Z,24.34
2019-05-19T14:14:38.737Z,24.39
2019-05-19T14:15:38.649Z,24.27
2019-05-19T14:16:38.606Z,24.32
2019-05-19T14:17:38.936Z,24.26
2019-05-19T14:18:38.525Z,24.32
2019-05-19T14:19:38.477Z,24.31
2019-05-19T14:20:38.433Z,24.32
2019-05-19T14:21:38.385Z,24.29
2019-05-19T14:22:38.344Z,24.32
2019-05-19T14:23:38.306Z,24.34
2019-05-19T14:24:38.254Z,24.32
2019-05-19T14:25:38.212Z,24.27
2019-05-19T14:26:38.170Z,24.24
2019-05-19T14:27:38.125Z,24.34
2019-05-19T14:28:38.078Z,24.29
2019-05-19T14:29:38.034Z,24.29
2019-05-19T14:30:37.988Z,24.32
2019-05-19T14:31:37.945Z,24.34
2019-05-19T14:32:37.900Z,24.32
2019-05-19T14:33:37.860Z,24.34
2019-05-19T14:34:37.812Z,24.32
2019-05-19T14:35:37.809Z,24.29
2019-05-19T14:36:37.724Z,24.24
2019-05-19T14:37:37.686Z,24.34
2019-05-19T14:38:37.635Z,24.32
2019-05-19T14:39:37.595Z,24.34
2019-05-19T14:40:37.544Z,24.34
2019-05-19T14:41:37.505Z,24.38
2019-05-19T14:42:37.461Z,24.32
2019-05-19T14:43:37.420Z,24.31
2019-05-19T14:44:37.377Z,24.31
2019-05-19T14:45:37.360Z,24.31
2019-05-19T14:46:37.286Z,24.34
2019-05-19T14:47:37.307Z,24.37
2019-05-19T14:48:37.190Z,24.31
2019-05-19T14:49:37.153Z,24.27
2019-05-19T14:50:37.110Z,24.31
2019-05-19T14:51:37.066Z,24.24
2019-05-19T14:52:37.050Z,24.34
2019-05-19T14:53:36.988Z,24.29
2019-05-19T14:54:36.938Z,24.27
2019-05-19T14:55:36.895Z,24.32
2019-05-19T14:56:36.846Z,24.26
2019-05-19T14:57:44.983Z,24.26
2019-05-19T14:58:36.760Z,24.38
2019-05-19T14:59:36.708Z,24.31
2019-05-19T15:00:36.698Z,24.29
2019-05-19T15:01:36.627Z,24.31
2019-05-19T15:02:36.587Z,24.31
2019-05-19T15:03:36.534Z,24.34
2019-05-19T15:04:36.497Z,24.32
2019-05-19T15:05:36.453Z,24.32
2019-05-19T15:06:36.408Z,24.34
2019-05-19T15:07:36.402Z,24.38
2019-05-19T15:08:36.329Z,24.34
2019-05-19T15:09:36.283Z,24.34
2019-05-19T15:10:36.234Z,24.27
2019-05-19T15:11:36.189Z,24.35
2019-05-19T15:12:36.145Z,24.39
2019-05-19T15:13:36.111Z,24.38
2019-05-19T15:14:36.061Z,24.35
2019-05-19T15:15:36.055Z,24.32
2019-05-19T15:16:35.978Z,24.26
2019-05-19T15:17:35.944Z,24.35
2019-05-19T15:18:35.892Z,24.29
2019-05-19T15:19:35.838Z,24.32
2019-05-19T15:20:35.792Z,24.32
2019-05-19T15:21:35.749Z,24.35
2019-05-19T15:22:35.708Z,24.35
2019-05-19T15:23:35.662Z,24.29
2019-05-19T15:24:35.617Z,24.34
2019-05-19T15:25:35.572Z,24.32
2019-05-19T15:26:35.527Z,24.34
2019-05-19T15:27:35.489Z,24.34
2019-05-19T15:28:35.694Z,24.29
2019-05-19T15:29:35.394Z,24.32
2019-05-19T15:30:35.358Z,24.34
2019-05-19T15:31:35.339Z,24.27
2019-05-19T15:32:35.271Z,24.23
2019-05-19T15:33:38.312Z,24.34
2019-05-19T15:34:35.179Z,24.37
2019-05-19T15:35:35.136Z,24.29
2019-05-19T15:36:35.094Z,24.24
2019-05-19T15:37:35.051Z,24.31
2019-05-19T15:38:35.008Z,24.26
2019-05-19T15:39:34.959Z,24.29
2019-05-19T15:40:34.913Z,24.32
2019-05-19T15:41:34.909Z,24.31
2019-05-19T15:42:34.831Z,24.29
2019-05-19T15:43:34.781Z,24.35
2019-05-19T15:44:34.744Z,24.31
2019-05-19T15:45:34.693Z,24.29
2019-05-19T15:46:34.651Z,24.29
2019-05-19T15:47:34.602Z,24.31
2019-05-19T15:48:34.564Z,24.32
2019-05-19T15:49:34.525Z,24.24
2019-05-19T15:50:34.479Z,24.37
2019-05-19T15:51:37.766Z,24.31
2019-05-19T15:52:34.387Z,24.38
2019-05-19T15:53:34.355Z,24.37
2019-05-19T15:54:34.299Z,24.34
2019-05-19T15:55:34.255Z,24.37
2019-05-19T15:56:34.215Z,24.31
2019-05-19T15:57:34.167Z,24.32
2019-05-19T15:58:34.185Z,24.32
2019-05-19T15:59:34.089Z,24.35
2019-05-19T16:00:34.045Z,24.37
2019-05-19T16:01:33.991Z,24.35
2019-05-19T16:02:33.961Z,24.41
2019-05-19T16:03:33.906Z,24.32
2019-05-19T16:04:33.867Z,24.34
2019-05-19T16:05:33.847Z,24.38
2019-05-19T16:06:33.785Z,24.32
2019-05-19T16:07:33.734Z,24.32
2019-05-19T16:08:33.706Z,24.47
2019-05-19T16:09:33.647Z,24.49
2019-05-19T16:10:33.601Z,24.45
2019-05-19T16:11:33.559Z,24.39
2019-05-19T16:12:33.513Z,24.41
2019-05-19T16:13:33.465Z,24.37
2019-05-19T16:14:33.422Z,24.39
2019-05-19T16:15:33.378Z,24.41
2019-05-19T16:16:33.338Z,24.39
2019-05-19T16:17:33.288Z,24.44
2019-05-19T16:18:33.247Z,24.37
2019-05-19T16:19:33.203Z,24.44
2019-05-19T16:20:33.155Z,24.52
2019-05-19T16:21:33.112Z,24.39
2019-05-19T16:22:33.074Z,24.42
2019-05-19T16:23:33.024Z,24.42
2019-05-19T16:24:32.979Z,24.53
2019-05-19T16:25:32.937Z,24.49
2019-05-19T16:26:32.893Z,24.42
2019-05-19T16:27:32.848Z,24.45
2019-05-19T16:28:32.812Z,24.47
2019-05-19T16:29:32.758Z,24.45
2019-05-19T16:30:32.722Z,24.47
2019-05-19T16:31:32.673Z,24.45
2019-05-19T16:32:32.631Z,24.47
2019-05-19T16:33:32.584Z,24.45
2019-05-19T16:34:32.629Z,24.50
2019-05-19T16:35:32.502Z,24.52
2019-05-19T16:36:32.538Z,24.53
2019-05-19T16:37:32.411Z,24.47
2019-05-19T16:38:32.368Z,24.50
2019-05-19T16:39:32.323Z,24.45
2019-05-19T16:40:32.287Z,24.50
2019-05-19T16:41:32.234Z,24.42
2019-05-19T16:42:32.191Z,24.53
2019-05-19T16:43:32.188Z,24.57
2019-05-19T16:44:32.099Z,24.44
2019-05-19T16:45:32.167Z,24.42
2019-05-19T16:46:32.014Z,24.47
2019-05-19T16:47:31.976Z,24.39
2019-05-19T16:48:31.928Z,24.49
2019-05-19T16:49:31.884Z,24.45
2019-05-19T16:50:31.838Z,24.44
2019-05-19T16:51:31.842Z,24.41
2019-05-19T16:52:31.785Z,24.39
2019-05-19T16:53:31.708Z,24.44
2019-05-19T16:54:31.670Z,24.39
2019-05-19T16:55:31.620Z,24.39
2019-05-19T16:56:31.581Z,24.39
2019-05-19T16:57:31.534Z,24.38
2019-05-19T16:58:44.409Z,24.41
2019-05-19T16:59:31.449Z,24.45
2019-05-19T17:00:31.405Z,24.42
2019-05-19T17:01:31.358Z,24.42
2019-05-19T17:02:31.319Z,24.42
2019-05-19T17:03:31.270Z,24.41
2019-05-19T17:04:31.230Z,24.44
2019-05-19T17:05:31.238Z,24.45
2019-05-19T17:06:31.142Z,24.41